Time;durP1;ratioP1;P1;durP2;ratioP2;P2;SDS_P1;SDS_P2;PMS_P1;PMS_P2;Temp;Humidity;BMP_temperature;BMP_pressure;BME280_temperature;BME280_humidity;BME280_pressure;Samples;Min_cycle;Max_cycle;Signal;HPM_P1;HPM_P2
2022/05/24 00:01:08;;;;;;;6.80;1.67;;;;;;;;;;4500557;31;20079;-80
2022/05/24 00:03:33;;;;;;;5.72;1.85;;;;;;;;;;4486610;32;20111;-80
2022/05/24 00:05:58;;;;;;;5.50;1.90;;;;;;;21.79;33.97;97968.97;4486549;32;20084;-80
2022/05/24 00:08:24;;;;;;;8.23;2.20;;;;;;;21.73;34.05;97966.13;4472241;32;20448;-80
2022/05/24 00:10:49;;;;;;;8.50;1.87;;;;;;;21.76;33.89;97969.28;4486398;32;20419;-80
2022/05/24 00:13:15;;;;;;;4.90;1.77;;;;;;;21.73;34.04;97961.62;4486320;32;20076;-80
2022/05/24 00:15:41;;;;;;;7.00;2.03;;;;;;;21.75;34.01;97964.97;4486268;32;20356;-80
2022/05/24 00:18:09;;;;;;;5.47;1.80;;;;;;;21.73;34.19;97969.66;4472180;32;20425;-80
2022/05/24 00:20:39;;;;;;;8.43;2.20;;;;;;;21.77;34.26;97954.91;4458974;32;20470;-80
2022/05/24 00:23:05;;;;;;;4.72;1.70;;;;;;;21.86;33.98;97957.53;4486209;32;20107;-80
2022/05/24 00:25:33;;;;;;;3.75;1.50;;;;;;;21.76;34.14;97957.75;4471887;32;20124;-80
2022/05/24 00:27:58;;;;;;;5.03;1.87;;;;;;;21.79;34.24;97954.72;4486175;32;20463;-80
2022/05/24 00:30:25;;;;;;;4.80;1.90;;;;;;;21.75;34.40;97950.69;4471928;32;20076;-80
2022/05/24 00:32:50;;;;;;;5.60;1.80;;;;;;;21.73;34.10;97948.22;4473017;32;20153;-80
2022/05/24 00:35:16;;;;;;;6.78;2.03;;;;;;;21.69;34.34;97940.69;4488085;32;20382;-80
2022/05/24 00:37:43;;;;;;;5.12;1.67;;;;;;;21.70;34.32;97942.37;4475268;31;20092;-79
2022/05/24 00:40:19;;;;;;;4.95;1.67;;;;;;;21.68;34.31;97945.22;4476455;31;20107;-80
2022/05/24 00:42:46;;;;;;;7.75;1.80;;;;;;;21.71;34.16;97950.25;4489643;31;20435;-79
2022/05/24 00:45:31;;;;;;;4.87;1.62;;;;;;;21.71;34.19;97949.38;4489825;31;20111;-80
2022/05/24 00:48:21;;;;;;;4.70;1.80;;;;;;;21.72;34.09;97945.69;4503959;31;20075;-79
2022/05/24 00:50:49;;;;;;;5.90;2.08;;;;;;;21.69;34.23;97941.53;4489652;31;20075;-80
2022/05/24 00:53:27;;;;;;;6.90;1.70;;;;;;;21.68;34.36;97939.84;4489572;31;20128;-80
2022/05/24 00:56:13;;;;;;;5.28;1.70;;;;;;;21.70;34.39;97951.22;4489262;31;20088;-80
2022/05/24 00:58:53;;;;;;;4.20;1.67;;;;;;;21.65;34.51;97950.91;4489684;31;20167;-80
2022/05/24 01:01:38;;;;;;;5.03;1.80;;;;;;;21.61;34.66;97946.91;4503875;31;20114;-80
2022/05/24 01:04:04;;;;;;;4.95;1.70;;;;;;;21.60;34.44;97948.78;4476228;31;20478;-79
2022/05/24 01:06:30;;;;;;;5.20;1.87;;;;;;;21.53;34.43;97953.16;4503750;31;20467;-79
2022/05/24 01:08:58;;;;;;;4.60;1.77;;;;;;;21.51;34.49;97949.81;4476240;31;20122;-79
2022/05/24 01:11:24;;;;;;;4.20;1.70;;;;;;;21.54;34.45;97945.97;4503692;31;20088;-80
2022/05/24 01:13:51;;;;;;;6.10;1.73;;;;;;;21.47;34.51;97945.81;4503652;31;20102;-79
2022/05/24 01:16:17;;;;;;;5.00;1.70;;;;;;;21.46;34.49;97945.97;4476210;31;20122;-80
2022/05/24 01:18:43;;;;;;;5.90;1.80;;;;;;;21.40;34.58;97950.16;4489277;31;20108;-80
2022/05/24 01:21:11;;;;;;;5.72;1.60;;;;;;;21.38;34.63;97942.31;4489299;31;20088;-79
2022/05/24 01:23:52;;;;;;;8.82;1.87;;;;;;;21.37;34.81;97939.78;4503703;31;20415;-80
2022/05/24 01:26:36;;;;;;;5.68;1.60;;;;;;;21.31;34.77;97941.31;4489306;31;20111;-80
2022/05/24 01:29:05;;;;;;;5.97;1.70;;;;;;;21.29;34.78;97943.34;4503646;31;20117;-80
2022/05/24 01:36:09;;;;;;;6.32;1.70;;;;;;;21.30;34.70;97949.53;4489197;31;20084;-80
2022/05/24 01:37:10;;;;;;;3.78;1.42;;;;;;;21.28;34.94;97954.22;4428597;32;20136;-79
2022/05/24 01:39:36;;;;;;;6.22;1.90;;;;;;;21.31;34.84;97959.25;4425865;32;20124;-80
2022/05/24 01:42:03;;;;;;;6.68;1.95;;;;;;;21.31;34.88;97964.59;4425845;32;20101;-79
2022/05/24 01:44:34;;;;;;;4.00;1.77;;;;;;;21.34;34.94;97973.13;4438298;32;20176;-79
2022/05/24 01:47:00;;;;;;;5.37;1.73;;;;;;;21.36;34.90;97976.47;4438705;32;20544;-79
2022/05/24 01:49:29;;;;;;;6.15;1.80;;;;;;;21.33;34.97;97989.37;4438680;32;20725;-79
2022/05/24 01:52:04;;;;;;;5.28;1.70;;;;;;;21.38;34.98;97995.03;4438737;32;20219;-80
2022/05/24 01:54:32;;;;;;;6.05;1.75;;;;;;;21.37;35.38;97998.75;4438528;32;20121;-79
2022/05/24 01:57:05;;;;;;;6.05;1.80;;;;;;;21.41;36.02;97998.22;4438362;32;20125;-80
2022/05/24 01:59:31;;;;;;;6.93;1.87;;;;;;;21.45;36.14;97997.91;4425966;32;20652;-79
2022/05/24 02:01:58;;;;;;;5.03;1.70;;;;;;;21.40;36.47;97977.81;4438600;32;20105;-80
2022/05/24 02:04:26;;;;;;;5.15;1.98;;;;;;;21.35;36.84;97973.97;4438739;32;20089;-79
2022/05/24 02:07:25;;;;;;;6.10;1.95;;;;;;;21.36;37.25;97956.88;4438434;32;20148;-79
2022/05/24 02:09:53;;;;;;;5.65;1.80;;;;;;;21.32;37.11;97928.75;4436208;32;20139;-78
2022/05/24 02:12:21;;;;;;;4.32;1.90;;;;;;;21.32;37.22;97901.97;4425637;32;20431;-78
2022/05/24 02:15:02;;;;;;;5.90;1.80;;;;;;;21.21;37.45;97943.37;4492869;31;20092;-79
2022/05/24 02:17:32;;;;;;;5.45;1.90;;;;;;;21.21;37.66;97941.53;4489009;31;20104;-79
2022/05/24 02:19:59;;;;;;;7.50;2.00;;;;;;;21.21;37.75;97951.41;4503338;31;20104;-79
2022/05/24 02:22:27;;;;;;;5.93;2.20;;;;;;;21.16;36.78;97969.81;4488854;31;20084;-79
2022/05/24 02:25:04;;;;;;;7.35;2.00;;;;;;;21.15;36.85;97978.84;4503251;31;20139;-79
2022/05/24 02:27:30;;;;;;;8.32;2.20;;;;;;;21.16;37.48;97989.41;4488920;31;20100;-79
2022/05/24 02:29:57;;;;;;;5.15;2.10;;;;;;;21.13;37.10;97989.75;4503280;31;20120;-79
2022/05/24 02:32:23;;;;;;;5.40;1.77;;;;;;;21.10;39.15;97990.09;4488849;31;20088;-79
2022/05/24 02:34:48;;;;;;;5.75;2.08;;;;;;;21.06;39.21;97994.13;4488719;31;20106;-79
2022/05/24 02:37:14;;;;;;;6.82;2.28;;;;;;;21.02;41.07;97995.47;4503153;31;20096;-79
2022/05/24 02:42:23;;;;;;;7.05;2.47;;;;;;;21.02;44.50;98006.19;4503156;31;20126;-79
2022/05/24 02:44:49;;;;;;;8.48;2.55;;;;;;;20.96;45.65;98013.03;4502810;31;20084;-78
2022/05/24 02:47:15;;;;;;;7.62;2.60;;;;;;;20.94;46.94;98012.37;4503029;31;20118;-77
2022/05/24 02:49:40;;;;;;;7.62;2.28;;;;;;;20.93;47.55;98010.69;4487656;31;20131;-77
2022/05/24 02:52:05;;;;;;;10.43;2.62;;;;;;;20.90;48.44;98011.03;4488277;31;20141;-77
2022/05/24 02:54:31;;;;;;;8.15;2.58;;;;;;;20.89;48.85;98009.34;4483547;32;20080;-78
2022/05/24 02:56:58;;;;;;;8.30;2.80;;;;;;;20.79;49.23;98012.22;4484176;31;20092;-76
2022/05/24 02:59:24;;;;;;;8.07;2.65;;;;;;;20.70;49.16;98017.72;4485762;31;20092;-77
2022/05/24 03:01:49;;;;;;;9.02;2.40;;;;;;;20.68;50.15;98012.53;4485976;32;20118;-78
2022/05/24 03:04:15;;;;;;;9.75;2.97;;;;;;;20.61;50.13;98016.91;4485667;31;20088;-77
2022/05/24 03:09:33;;;;;;;11.48;3.10;;;;;;;20.48;51.39;98014.69;4485774;32;20190;-78
2022/05/24 03:14:43;;;;;;;14.13;3.25;;;;;;;20.28;51.18;98002.59;4485746;32;20102;-77
2022/05/24 03:17:08;;;;;;;11.50;3.72;;;;;;;20.20;51.74;98000.75;4485873;31;20100;-77
2022/05/24 03:19:34;;;;;;;10.35;3.42;;;;;;;20.09;52.09;98007.25;4484355;32;20107;-78
2022/05/24 03:21:59;;;;;;;10.38;3.28;;;;;;;19.76;51.68;98000.94;4485705;31;20102;-78
2022/05/24 03:24:25;;;;;;;8.52;3.50;;;;;;;19.69;52.02;98008.75;4485355;31;20109;-77
2022/05/24 03:26:51;;;;;;;12.32;3.17;;;;;;;19.68;52.00;98006.25;4485557;31;20136;-77
2022/05/24 03:29:16;;;;;;;11.40;3.50;;;;;;;19.66;52.14;98011.75;4485600;31;20422;-77
2022/05/24 03:31:42;;;;;;;7.60;3.20;;;;;;;19.64;52.95;98011.06;4485572;31;20108;-78
2022/05/24 03:34:07;;;;;;;9.02;3.67;;;;;;;19.61;52.26;98016.75;4485761;31;20120;-77
2022/05/24 03:36:33;;;;;;;11.23;3.50;;;;;;;19.61;52.96;98032.78;4485527;32;20081;-76
2022/05/24 03:38:59;;;;;;;11.48;3.45;;;;;;;19.51;53.83;98038.25;4484449;32;20517;-76
2022/05/24 03:41:24;;;;;;;11.02;3.33;;;;;;;19.57;54.09;98050.13;4484305;32;20099;-76
2022/05/24 03:43:50;;;;;;;11.27;3.58;;;;;;;19.58;54.44;98057.97;4485655;31;20119;-78
2022/05/24 03:46:17;;;;;;;9.90;3.60;;;;;;;19.54;54.96;98061.94;4485648;31;20100;-77
2022/05/24 03:48:42;;;;;;;8.65;3.33;;;;;;;19.55;55.32;98060.13;4484531;32;20119;-75
2022/05/24 03:51:08;;;;;;;8.02;2.85;;;;;;;19.53;54.67;98060.28;4484358;32;20405;-76
2022/05/24 03:53:33;;;;;;;10.00;3.47;;;;;;;19.59;53.93;98058.81;4484240;32;20103;-75
2022/05/24 03:55:59;;;;;;;8.82;3.20;;;;;;;19.58;53.07;98054.47;4485529;31;20089;-77
2022/05/24 03:58:24;;;;;;;10.02;3.47;;;;;;;19.56;53.26;98049.25;4484385;32;20108;-75
2022/05/24 04:00:50;;;;;;;8.60;3.58;;;;;;;19.49;53.57;98048.25;4484362;32;20124;-74
2022/05/24 04:03:17;;;;;;;10.48;3.40;;;;;;;19.57;52.63;98050.13;4485300;31;20092;-75
2022/05/24 04:05:42;;;;;;;9.25;3.53;;;;;;;19.60;52.68;98049.78;4483918;32;20089;-75
2022/05/24 04:08:08;;;;;;;10.60;3.40;;;;;;;19.62;53.11;98058.47;4483717;32;20173;-75
2022/05/24 04:10:34;;;;;;;8.00;3.37;;;;;;;19.65;53.42;98060.84;4485248;31;20131;-76
2022/05/24 04:13:00;;;;;;;9.07;3.10;;;;;;;19.69;53.87;98054.19;4483866;32;20088;-75
2022/05/24 04:15:26;;;;;;;9.15;3.28;;;;;;;19.70;53.85;98058.53;4485139;31;20114;-75
2022/05/24 04:17:52;;;;;;;9.75;3.72;;;;;;;19.70;54.02;98066.56;4485064;31;20089;-76
2022/05/24 04:20:19;;;;;;;8.93;3.45;;;;;;;19.70;53.90;98066.56;4483893;32;20106;-76
2022/05/24 04:22:45;;;;;;;10.55;3.47;;;;;;;19.74;53.23;98065.28;4484926;31;20091;-75
2022/05/24 04:25:12;;;;;;;8.95;3.40;;;;;;;19.71;53.86;98078.09;4483503;32;20140;-75
2022/05/24 04:27:37;;;;;;;10.57;3.25;;;;;;;19.63;53.86;98071.69;4484850;31;20109;-75
2022/05/24 04:30:05;;;;;;;8.25;2.83;;;;;;;19.62;53.32;98070.03;4484922;31;20076;-75
2022/05/24 04:32:30;;;;;;;8.85;3.47;;;;;;;19.64;52.88;98073.37;4483610;32;20099;-76
2022/05/24 04:34:56;;;;;;;8.43;3.50;;;;;;;19.62;52.58;98074.50;4483380;32;20387;-74
2022/05/24 04:37:21;;;;;;;10.82;3.53;;;;;;;19.63;53.06;98077.03;4484520;31;20102;-75
2022/05/24 04:39:47;;;;;;;8.48;3.08;;;;;;;19.64;53.26;98070.72;4484715;31;20395;-74
2022/05/24 04:42:24;;;;;;;8.05;3.28;;;;;;;19.69;53.45;98078.22;4483402;32;20112;-76
2022/05/24 04:44:58;;;;;;;9.27;3.90;;;;;;;19.62;53.61;98064.69;4484597;31;20076;-74
2022/05/24 04:47:28;;;;;;;8.55;3.40;;;;;;;19.65;53.15;98072.37;4483405;32;20184;-74
2022/05/24 04:49:57;;;;;;;8.07;3.60;;;;;;;19.64;53.15;98068.03;4483497;32;20080;-75
2022/05/24 04:52:26;;;;;;;10.32;3.70;;;;;;;19.63;53.37;98071.69;4483545;32;20080;-75
2022/05/24 04:54:52;;;;;;;9.63;3.95;;;;;;;19.67;53.88;98064.19;4484656;31;20104;-74
2022/05/24 04:57:18;;;;;;;10.07;3.70;;;;;;;19.67;53.61;98074.06;4485757;31;20103;-76
2022/05/24 04:59:44;;;;;;;9.95;3.80;;;;;;;19.65;53.36;98079.56;4487250;31;20495;-76
2022/05/24 05:02:09;;;;;;;10.00;4.20;;;;;;;19.64;53.27;98078.72;4501476;31;20132;-77
2022/05/24 05:04:36;;;;;;;11.10;4.45;;;;;;;19.60;53.78;98071.16;4487096;31;20119;-76
2022/05/24 05:07:02;;;;;;;8.63;3.78;;;;;;;19.59;53.90;98073.00;4487136;31;20121;-75
2022/05/24 05:09:34;;;;;;;10.80;4.18;;;;;;;19.65;53.74;98076.88;4487096;31;20107;-78
2022/05/24 05:12:04;;;;;;;9.25;3.80;;;;;;;19.70;53.73;98077.25;4487758;31;20098;-77
2022/05/24 05:14:29;;;;;;;9.98;4.30;;;;;;;19.68;53.75;98083.72;4486525;31;20644;-77
2022/05/24 05:16:55;;;;;;;10.15;4.12;;;;;;;19.63;53.59;98071.69;4499938;31;20118;-77
2022/05/24 05:19:20;;;;;;;9.43;4.22;;;;;;;19.61;53.79;98080.87;4500607;31;20697;-77
2022/05/24 05:21:46;;;;;;;10.32;4.40;;;;;;;19.62;53.54;98086.06;4489267;31;20381;-76
2022/05/24 05:24:11;;;;;;;9.80;4.55;;;;;;;19.60;53.83;98079.19;4503598;31;20085;-77
2022/05/24 05:26:37;;;;;;;9.23;4.05;;;;;;;19.60;53.53;98093.38;4476077;31;20088;-77
2022/05/24 05:29:03;;;;;;;9.52;3.70;;;;;;;19.57;53.68;98083.03;4503542;31;20127;-77
2022/05/24 05:31:28;;;;;;;11.57;4.28;;;;;;;19.57;53.19;98084.84;4488906;31;20072;-77
2022/05/24 05:33:55;;;;;;;11.40;4.87;;;;;;;19.44;53.96;98088.78;4503540;31;20381;-77
2022/05/24 05:36:22;;;;;;;10.75;4.18;;;;;;;19.49;53.87;98082.97;4503318;31;20144;-76
2022/05/24 05:38:48;;;;;;;9.57;4.25;;;;;;;19.48;54.13;98075.94;4489210;31;20091;-76
2022/05/24 05:41:18;;;;;;;11.68;4.90;;;;;;;19.48;54.28;98077.78;4489224;31;20139;-77
2022/05/24 05:43:44;;;;;;;11.32;4.65;;;;;;;19.45;54.56;98078.91;4503594;31;20084;-77
2022/05/24 05:46:10;;;;;;;12.75;4.35;;;;;;;19.37;54.75;98089.56;4489390;31;20123;-76
2022/05/24 05:48:36;;;;;;;8.73;3.95;;;;;;;19.38;54.36;98088.56;4503737;31;20105;-78
2022/05/24 05:51:02;;;;;;;9.95;4.03;;;;;;;19.43;54.77;98100.47;4489357;31;20080;-77
2022/05/24 05:53:28;;;;;;;10.05;4.40;;;;;;;19.42;54.55;98100.63;4489290;31;20551;-77
2022/05/24 05:55:54;;;;;;;10.45;4.53;;;;;;;19.43;54.43;98103.13;4503256;31;20144;-76
2022/05/24 05:58:19;;;;;;;10.13;4.35;;;;;;;19.49;54.44;98095.47;4476177;31;20109;-77
2022/05/24 06:00:48;;;;;;;10.55;4.72;;;;;;;19.46;55.02;98093.97;4503597;31;20080;-76
2022/05/24 06:03:14;;;;;;;10.98;4.55;;;;;;;19.58;54.58;98092.69;4476226;31;20130;-78
2022/05/24 06:05:39;;;;;;;10.63;4.18;;;;;;;19.57;53.75;98091.03;4475693;31;20161;-77
2022/05/24 06:08:08;;;;;;;10.98;4.30;;;;;;;19.57;54.14;98092.88;4489014;31;20088;-78
2022/05/24 06:10:34;;;;;;;10.27;4.30;;;;;;;19.58;53.96;98105.22;4503225;31;20080;-77
2022/05/24 06:12:59;;;;;;;10.57;3.85;;;;;;;19.55;53.55;98113.56;4488928;31;20262;-77
2022/05/24 06:15:25;;;;;;;10.82;4.62;;;;;;;19.57;53.40;98101.72;4503192;31;20479;-79
2022/05/24 06:17:52;;;;;;;10.20;4.32;;;;;;;19.52;53.48;98111.19;4503207;31;20463;-80
2022/05/24 06:20:20;;;;;;;10.50;4.60;;;;;;;19.47;53.65;98113.50;4488914;31;20098;-79
2022/05/24 06:22:46;;;;;;;11.12;4.35;;;;;;;19.50;53.85;98115.88;4503251;31;20117;-80
2022/05/24 06:25:12;;;;;;;10.52;4.00;;;;;;;19.49;53.95;98106.16;4488976;31;20528;-79
2022/05/24 06:27:38;;;;;;;10.93;4.80;;;;;;;19.49;53.88;98100.81;4503099;31;20088;-79
2022/05/24 06:30:04;;;;;;;11.43;4.28;;;;;;;19.44;54.18;98104.78;4502851;31;20136;-79
2022/05/24 06:32:30;;;;;;;9.25;4.18;;;;;;;19.54;53.96;98098.53;4503465;31;20108;-80
2022/05/24 06:34:56;;;;;;;11.75;4.65;;;;;;;19.48;53.63;98099.16;4489169;31;20134;-79
2022/05/24 06:37:22;;;;;;;10.77;4.62;;;;;;;19.54;53.58;98109.22;4503394;31;20108;-79
2022/05/24 06:39:48;;;;;;;10.88;4.65;;;;;;;19.55;53.70;98111.72;4503453;31;20080;-79
2022/05/24 06:42:14;;;;;;;10.43;4.85;;;;;;;19.50;54.20;98110.53;4489046;31;20101;-79
2022/05/24 06:44:39;;;;;;;12.05;5.40;;;;;;;19.60;54.35;98120.09;4503258;31;20143;-79
2022/05/24 06:47:05;;;;;;;12.45;5.22;;;;;;;19.47;54.26;98119.69;4503234;31;20114;-78
2022/05/24 06:49:30;;;;;;;12.30;5.70;;;;;;;19.41;54.10;98117.63;4503234;31;20532;-79
2022/05/24 06:51:56;;;;;;;13.15;5.35;;;;;;;19.27;54.51;98112.84;4488800;31;20130;-79
2022/05/24 06:54:21;;;;;;;10.77;5.15;;;;;;;19.34;54.18;98117.41;4488972;31;20136;-79
2022/05/24 06:56:46;;;;;;;11.07;5.10;;;;;;;19.40;53.66;98121.31;4503002;31;20087;-80
2022/05/24 07:04:40;;;;;;;11.45;4.90;;;;;;;19.46;54.07;98115.34;4490936;31;20432;-81
2022/05/24 07:07:06;;;;;;;11.57;5.35;;;;;;;19.54;54.76;98125.22;4502871;31;20088;-81
2022/05/24 07:09:31;;;;;;;11.68;4.72;;;;;;;19.60;54.13;98120.09;4502884;31;20064;-81
2022/05/24 07:11:58;;;;;;;11.90;4.70;;;;;;;19.74;53.07;98118.72;4502895;31;20118;-81
2022/05/24 07:14:23;;;;;;;13.23;4.65;;;;;;;19.84;52.73;98122.12;4502862;31;20451;-80
2022/05/24 07:16:49;;;;;;;11.57;5.03;;;;;;;20.00;52.51;98118.66;4488384;31;20076;-80
2022/05/24 07:19:14;;;;;;;9.30;4.80;;;;;;;20.17;52.24;98118.75;4486576;31;20148;-80
2022/05/24 07:21:40;;;;;;;11.07;4.78;;;;;;;20.29;52.10;98116.63;4486214;31;20096;-80
2022/05/24 07:24:05;;;;;;;10.55;4.87;;;;;;;20.40;51.51;98116.34;4487306;31;20100;-80
2022/05/24 07:26:31;;;;;;;11.98;4.95;;;;;;;20.55;51.18;98117.38;4501728;31;20341;-80
2022/05/24 07:28:56;;;;;;;11.95;4.97;;;;;;;20.65;51.10;98117.25;4501930;31;20072;-80
2022/05/24 07:31:22;;;;;;;11.00;5.10;;;;;;;20.88;50.92;98112.13;4502139;31;20156;-80
2022/05/24 07:33:47;;;;;;;10.45;4.75;;;;;;;20.99;49.43;98109.09;4502575;31;20084;-80
2022/05/24 07:36:13;;;;;;;10.98;4.82;;;;;;;21.17;50.75;98105.41;4502562;31;20111;-80
2022/05/24 07:38:39;;;;;;;12.40;4.90;;;;;;;21.34;50.59;98106.22;4502687;31;20072;-80
2022/05/24 07:46:33;;;;;;;10.18;5.00;;;;;;;22.25;46.28;98115.78;4502677;31;20114;-80
2022/05/24 07:48:59;;;;;;;10.20;4.80;;;;;;;22.40;45.58;98118.56;4488275;31;20068;-80
2022/05/24 07:51:25;;;;;;;9.95;5.07;;;;;;;22.66;46.47;98112.06;4502514;31;20122;-80
2022/05/24 07:53:50;;;;;;;11.00;4.87;;;;;;;22.92;44.98;98103.63;4488192;31;20364;-80
2022/05/24 07:56:18;;;;;;;10.70;4.85;;;;;;;23.12;45.53;98098.62;4502229;31;20111;-80
2022/05/24 07:58:44;;;;;;;11.43;5.00;;;;;;;23.33;44.79;98092.56;4502437;31;20468;-80
2022/05/24 08:01:10;;;;;;;11.02;4.72;;;;;;;23.45;43.83;98101.88;4488013;31;20096;-80
2022/05/24 08:03:35;;;;;;;9.85;5.12;;;;;;;23.53;43.20;98103.66;4488073;31;20108;-80
2022/05/24 08:06:01;;;;;;;10.13;5.00;;;;;;;23.55;43.36;98112.38;4502333;31;20423;-80
2022/05/24 08:08:27;;;;;;;10.25;4.55;;;;;;;23.46;43.04;98116.97;4502557;31;20152;-80
2022/05/24 08:10:52;;;;;;;9.82;4.60;;;;;;;23.61;43.76;98117.00;4502608;31;20112;-80
2022/05/24 08:13:19;;;;;;;10.20;4.22;;;;;;;23.78;43.75;98106.97;4502467;31;20083;-80
2022/05/24 08:15:45;;;;;;;10.05;4.72;;;;;;;23.90;43.50;98104.63;4488086;31;20111;-80
2022/05/24 08:18:10;;;;;;;9.63;4.55;;;;;;;23.98;42.38;98109.91;4502126;31;20427;-80
2022/05/24 08:20:37;;;;;;;10.73;4.80;;;;;;;23.97;42.55;98107.41;4502141;31;20106;-80
2022/05/24 08:23:03;;;;;;;11.77;5.33;;;;;;;23.88;42.94;98109.38;4502338;31;20407;-80
2022/05/24 08:25:30;;;;;;;11.93;5.07;;;;;;;23.82;42.78;98115.50;4502453;31;20107;-80
2022/05/24 08:27:58;;;;;;;11.57;5.37;;;;;;;23.84;43.60;98113.47;4488232;31;20415;-80
2022/05/24 08:30:24;;;;;;;11.02;4.90;;;;;;;23.82;43.30;98107.44;4502194;31;20198;-80
2022/05/24 08:32:50;;;;;;;11.90;5.50;;;;;;;23.84;43.74;98118.84;4474738;31;20100;-80
2022/05/24 08:35:18;;;;;;;11.15;5.53;;;;;;;23.80;44.27;98117.50;4502105;31;20072;-80
2022/05/24 08:37:44;;;;;;;11.63;5.90;;;;;;;23.86;44.66;98123.00;4502044;31;20102;-80
2022/05/24 08:40:11;;;;;;;11.15;5.62;;;;;;;23.70;44.14;98117.75;4502170;31;20084;-80
2022/05/24 08:42:53;;;;;;;11.12;5.18;;;;;;;23.72;44.66;98111.19;4487706;31;20084;-80
2022/05/24 08:48:26;;;;;;;10.35;5.82;;;;;;;23.93;42.96;98115.00;4489619;31;20454;-80
2022/05/24 08:50:55;;;;;;;12.20;5.80;;;;;;;24.12;43.93;98109.06;4501688;31;20147;-80
2022/05/24 08:53:31;;;;;;;10.55;5.37;;;;;;;24.37;41.82;98113.31;4487287;31;20744;-80
2022/05/24 08:55:58;;;;;;;11.60;4.97;;;;;;;24.58;40.59;98109.88;4503592;31;20080;-80
2022/05/24 08:58:35;;;;;;;9.57;5.07;;;;;;;24.73;41.37;98108.78;4489647;31;20202;-80
2022/05/24 09:01:02;;;;;;;11.93;4.82;;;;;;;24.91;39.99;98107.50;4489738;31;20127;-80
2022/05/24 09:03:28;;;;;;;11.57;4.80;;;;;;;24.99;39.71;98104.69;4489626;31;20131;-80
2022/05/24 09:06:15;;;;;;;9.98;4.50;;;;;;;25.08;40.04;98100.00;4503747;31;20411;-80
2022/05/24 09:09:26;;;;;;;10.05;4.60;;;;;;;25.23;38.58;98103.50;4503823;31;20675;-80
2022/05/24 09:12:05;;;;;;;11.82;4.55;;;;;;;25.21;39.47;98108.22;4423671;32;20524;-80
2022/05/24 09:14:58;;;;;;;10.27;3.83;;;;;;;25.26;38.87;98110.34;4410849;32;20405;-80
2022/05/24 09:17:33;;;;;;;9.63;3.62;;;;;;;25.38;37.55;98107.97;4423651;32;20112;-80
2022/05/24 09:19:58;;;;;;;11.35;4.25;;;;;;;25.45;37.96;98112.38;4410697;32;20139;-80
2022/05/24 09:22:24;;;;;;;10.20;4.30;;;;;;;25.55;38.01;98117.41;4423447;32;20544;-80
2022/05/24 09:24:56;;;;;;;9.43;4.10;;;;;;;25.29;38.36;98118.06;4410732;32;20113;-80
2022/05/24 09:27:28;;;;;;;8.45;3.92;;;;;;;25.16;39.08;98118.75;4423540;32;20341;-80
2022/05/24 09:29:53;;;;;;;12.15;4.10;;;;;;;25.33;39.56;98100.47;4423446;32;20464;-80
2022/05/24 09:32:20;;;;;;;9.82;3.78;;;;;;;25.28;38.59;98114.53;4423436;32;20145;-80
2022/05/24 09:34:46;;;;;;;9.80;3.65;;;;;;;25.27;38.10;98115.56;4423370;32;20102;-80
2022/05/24 09:37:23;;;;;;;8.05;3.20;;;;;;;25.39;38.30;98106.94;4423528;32;20131;-80
2022/05/24 09:40:01;;;;;;;8.60;3.70;;;;;;;25.58;37.15;98117.03;4423468;32;20106;-80
2022/05/24 09:42:36;;;;;;;8.30;3.33;;;;;;;25.66;37.05;98116.88;4423381;32;20113;-80
2022/05/24 09:45:21;;;;;;;8.05;3.40;;;;;;;26.00;36.86;98117.13;4423702;32;20085;-80
2022/05/24 09:47:54;;;;;;;8.35;3.50;;;;;;;26.11;35.97;98113.03;4444530;31;20080;-80
2022/05/24 09:50:36;;;;;;;7.80;3.37;;;;;;;26.21;35.62;98117.03;4489174;31;20099;-80
2022/05/24 09:53:02;;;;;;;9.38;3.65;;;;;;;25.89;36.47;98119.31;4489192;31;20767;-80
2022/05/24 09:55:40;;;;;;;9.90;3.37;;;;;;;25.75;37.39;98114.88;4503166;31;20080;-80
2022/05/24 09:58:27;;;;;;;9.25;3.60;;;;;;;25.75;38.24;98111.34;4503569;31;20075;-80
2022/05/24 10:01:10;;;;;;;8.18;3.08;;;;;;;25.86;37.76;98116.19;4503368;31;20120;-80
2022/05/24 10:03:43;;;;;;;9.00;2.80;;;;;;;25.76;37.54;98113.00;4489214;31;20100;-80
2022/05/24 10:06:29;;;;;;;8.00;3.20;;;;;;;25.76;36.86;98119.22;4488669;31;20145;-80
2022/05/24 10:09:02;;;;;;;8.52;3.20;;;;;;;25.99;36.40;98123.56;4503441;31;20087;-80
2022/05/24 10:11:36;;;;;;;8.43;3.40;;;;;;;26.14;37.06;98129.66;4503448;31;20534;-80
2022/05/24 10:14:05;;;;;;;9.20;3.10;;;;;;;26.29;36.17;98127.66;4488983;31;20244;-80
2022/05/24 10:17:00;;;;;;;7.45;2.83;;;;;;;26.40;35.49;98123.53;4503312;31;20110;-80
2022/05/24 10:19:35;;;;;;;7.40;2.45;;;;;;;26.50;35.48;98131.28;4482362;31;20075;-80
2022/05/24 10:22:22;;;;;;;7.62;2.50;;;;;;;26.73;35.43;98122.84;4503360;31;20416;-80
2022/05/24 10:25:21;;;;;;;8.35;2.70;;;;;;;26.92;34.80;98117.72;4503171;31;20110;-80
2022/05/24 10:27:59;;;;;;;7.47;3.03;;;;;;;26.87;33.92;98115.62;4503388;31;20088;-80
2022/05/24 10:30:49;;;;;;;8.20;3.12;;;;;;;26.74;34.86;98115.59;4488912;31;20076;-80
2022/05/24 10:39:24;;;;;;;6.72;2.87;;;;;;;27.03;34.64;98092.78;4423164;32;20159;-80
2022/05/24 10:41:56;;;;;;;7.87;3.03;;;;;;;26.96;34.95;98094.63;4422998;32;20086;-80
2022/05/24 10:44:46;;;;;;;6.82;2.55;;;;;;;26.97;34.32;98085.50;4410311;32;20085;-80
2022/05/24 10:47:27;;;;;;;6.55;2.40;;;;;;;27.10;35.26;98090.06;4410597;32;20499;-80
2022/05/24 10:50:01;;;;;;;8.43;2.80;;;;;;;27.10;34.36;98088.22;4423261;32;20097;-80
2022/05/24 10:52:57;;;;;;;7.00;2.70;;;;;;;27.14;34.89;98088.63;4411076;32;20124;-80
2022/05/24 10:55:32;;;;;;;7.62;2.60;;;;;;;27.16;34.67;98100.91;4423033;32;20094;-79
2022/05/24 10:58:09;;;;;;;7.05;2.92;;;;;;;27.02;34.29;98101.91;4410177;32;20123;-80
2022/05/24 11:00:43;;;;;;;6.85;2.53;;;;;;;27.16;34.17;98097.34;4422911;32;20156;-80
2022/05/24 11:03:17;;;;;;;7.65;3.00;;;;;;;27.25;34.83;98110.53;4422928;32;20097;-80
2022/05/24 11:06:03;;;;;;;7.20;2.58;;;;;;;27.39;33.19;98091.56;4422810;32;20120;-80
2022/05/24 11:08:44;;;;;;;7.37;2.97;;;;;;;27.31;34.31;98091.78;4422918;32;20135;-80
2022/05/24 11:11:41;;;;;;;10.45;3.42;;;;;;;26.96;34.75;98095.47;4474374;31;20172;-80
2022/05/24 11:14:25;;;;;;;12.50;3.60;;;;;;;26.85;35.44;98082.59;4473472;31;20075;-80
2022/05/24 11:16:52;;;;;;;9.05;3.65;;;;;;;26.55;35.10;98085.59;4501745;31;20172;-80
2022/05/24 11:19:22;;;;;;;7.40;3.20;;;;;;;26.29;34.99;98076.38;4488550;31;20108;-80
2022/05/24 11:22:09;;;;;;;10.80;3.60;;;;;;;26.14;36.26;98074.84;4502757;31;20164;-80
2022/05/24 11:25:02;;;;;;;9.25;3.60;;;;;;;26.05;36.24;98088.50;4488505;31;20088;-80
2022/05/24 11:27:30;;;;;;;6.80;2.85;;;;;;;25.94;36.13;98082.84;4502777;31;20105;-80
2022/05/24 11:29:59;;;;;;;9.05;2.78;;;;;;;25.81;37.08;98084.41;4488389;31;20096;-80
2022/05/24 11:32:32;;;;;;;9.23;2.85;;;;;;;25.88;37.18;98084.44;4488377;31;20257;-80
2022/05/24 11:35:09;;;;;;;7.57;3.20;;;;;;;25.79;36.61;98077.56;4502730;31;20075;-80
2022/05/24 11:37:41;;;;;;;7.45;3.20;;;;;;;25.66;36.36;98081.81;4475140;31;20079;-80
2022/05/24 11:40:30;;;;;;;7.80;3.50;;;;;;;25.42;36.96;98088.50;4488477;31;20116;-80
2022/05/24 11:43:00;;;;;;;7.55;3.30;;;;;;;25.29;37.05;98077.63;4502735;31;20099;-80
2022/05/24 11:45:28;;;;;;;9.27;3.22;;;;;;;25.24;37.51;98075.50;4502655;31;20773;-80
2022/05/24 11:47:53;;;;;;;10.38;3.30;;;;;;;25.15;38.06;98073.09;4488042;31;20098;-80
2022/05/24 11:50:31;;;;;;;7.20;2.80;;;;;;;25.12;38.79;98079.72;4502629;31;20084;-80
2022/05/24 11:53:07;;;;;;;8.95;3.30;;;;;;;24.99;38.48;98079.59;4502592;31;20110;-80
2022/05/24 11:55:44;;;;;;;7.22;2.95;;;;;;;24.90;37.94;98081.63;4502271;31;20080;-80
2022/05/24 11:58:19;;;;;;;9.98;3.45;;;;;;;24.85;37.90;98074.09;4502503;31;20391;-80
2022/05/24 12:00:56;;;;;;;8.07;3.00;;;;;;;24.84;38.38;98071.59;4502454;31;20103;-81
2022/05/24 12:09:16;;;;;;;7.87;3.45;;;;;;;24.70;39.05;98068.75;4502424;31;20122;-80
2022/05/24 12:11:42;;;;;;;8.82;3.08;;;;;;;24.68;39.35;98067.28;4488475;31;20096;-81
2022/05/24 12:14:19;;;;;;;7.40;2.90;;;;;;;24.60;39.19;98065.56;4502562;31;20123;-81
2022/05/24 12:16:46;;;;;;;10.02;3.92;;;;;;;24.52;39.25;98060.28;4502287;31;20132;-81
2022/05/24 12:19:43;;;;;;;7.18;3.15;;;;;;;24.42;39.46;98057.87;4487878;31;20110;-81
2022/05/24 12:22:12;;;;;;;9.98;3.70;;;;;;;24.44;39.42;98065.78;4502180;31;20451;-81